createdAt,value
2022-12-05T08:03:41.583Z,5.10
2022-12-05T08:06:14.472Z,5.04
2022-12-05T08:08:42.090Z,5.13
2022-12-05T08:11:28.147Z,5.25
2022-12-05T08:13:55.831Z,5.18
2022-12-05T08:16:25.881Z,5.21
2022-12-05T08:19:00.677Z,5.31
2022-12-05T08:21:28.152Z,5.41
2022-12-05T08:23:55.754Z,5.39
2022-12-05T08:26:25.567Z,5.36
2022-12-05T08:28:54.422Z,5.38
2022-12-05T08:31:27.143Z,5.43
2022-12-05T08:33:59.015Z,5.40
2022-12-05T08:36:28.514Z,5.41
2022-12-05T08:38:57.267Z,5.32
2022-12-05T08:41:27.893Z,5.22
2022-12-05T08:44:00.765Z,5.21
2022-12-05T08:46:27.400Z,5.17
2022-12-05T08:48:54.709Z,5.26
2022-12-05T08:51:21.347Z,5.14
2022-12-05T08:53:48.168Z,5.13
2022-12-05T08:56:14.682Z,5.16
2022-12-05T08:58:42.086Z,5.24
2022-12-05T09:01:13.699Z,5.27
2022-12-05T09:03:46.028Z,5.18
2022-12-05T09:06:21.337Z,5.02
2022-12-05T09:08:49.386Z,5.09
2022-12-05T09:11:19.409Z,5.10
2022-12-05T09:13:47.533Z,5.04
2022-12-05T09:16:17.464Z,5.08
2022-12-05T09:18:44.634Z,5.15
2022-12-05T09:21:14.956Z,5.22
2022-12-05T09:23:42.113Z,5.26
2022-12-05T09:26:12.121Z,5.32
2022-12-05T09:28:39.221Z,5.35
2022-12-05T09:31:09.868Z,5.31
2022-12-05T09:33:37.522Z,5.37
2022-12-05T09:36:11.967Z,5.25
2022-12-05T09:38:39.371Z,5.18
2022-12-05T09:41:11.888Z,5.23
2022-12-05T09:44:05.289Z,5.27
2022-12-05T09:46:43.402Z,5.34
2022-12-05T09:49:11.828Z,5.41
2022-12-05T09:51:43.325Z,5.47
2022-12-05T09:54:12.610Z,5.54
2022-12-05T09:56:43.241Z,5.60
2022-12-05T09:59:16.177Z,5.62
2022-12-05T10:02:03.628Z,5.70
2022-12-05T10:05:00.637Z,5.84
2022-12-05T10:07:38.034Z,5.93
2022-12-05T10:10:25.629Z,5.85
2022-12-05T10:13:03.427Z,5.80
2022-12-05T10:15:47.745Z,5.84
2022-12-05T10:18:45.183Z,5.78
2022-12-05T10:25:12.640Z,5.72
2022-12-05T10:27:49.214Z,5.73
2022-12-05T10:30:18.997Z,5.45
2022-12-05T10:32:59.320Z,5.49
2022-12-05T10:35:32.276Z,5.48
2022-12-05T10:38:04.092Z,5.47
2022-12-05T10:49:54.960Z,5.61
2022-12-05T10:56:30.613Z,5.86
2022-12-05T10:58:57.840Z,5.93
2022-12-05T11:01:25.785Z,6.02
2022-12-05T11:03:59.408Z,6.07
2022-12-05T11:06:27.504Z,6.13
2022-12-05T11:09:05.670Z,6.17
2022-12-05T11:11:33.264Z,5.97
2022-12-05T11:14:05.603Z,5.57
2022-12-05T11:16:39.151Z,5.62
2022-12-05T11:19:21.034Z,5.77
2022-12-05T11:21:49.082Z,5.84
2022-12-05T11:24:22.587Z,5.84
2022-12-05T11:26:49.988Z,5.83
2022-12-05T11:29:33.598Z,5.83
2022-12-05T11:32:00.590Z,5.93
2022-12-05T11:34:37.971Z,5.97
2022-12-05T11:37:12.864Z,6.03
2022-12-05T11:39:40.061Z,6.08
2022-12-05T11:42:22.976Z,6.02
2022-12-05T11:45:13.975Z,5.92
2022-12-05T11:47:56.837Z,5.97
2022-12-05T11:50:35.822Z,6.02
2022-12-05T11:53:11.628Z,6.10
2022-12-05T11:56:03.255Z,6.19
2022-12-05T11:58:44.733Z,6.27
2022-12-05T12:01:20.657Z,6.28
2022-12-05T12:04:10.300Z,6.29
2022-12-05T12:07:02.684Z,6.19
2022-12-05T12:09:29.252Z,5.98
2022-12-05T12:12:20.357Z,5.99
2022-12-05T12:15:17.641Z,6.00
2022-12-05T12:18:29.460Z,6.06
2022-12-05T12:20:56.058Z,6.08
2022-12-05T12:23:44.299Z,5.92
2022-12-05T12:26:20.575Z,5.82
2022-12-05T12:29:11.427Z,5.87
2022-12-05T12:31:55.112Z,5.83
2022-12-05T12:34:27.990Z,5.68
2022-12-05T12:37:15.931Z,5.60
2022-12-05T12:40:24.251Z,5.38
2022-12-05T12:43:53.219Z,5.28
2022-12-05T12:46:41.037Z,5.33
2022-12-05T12:49:10.742Z,5.39
2022-12-05T12:51:48.306Z,5.43
2022-12-05T12:54:29.235Z,5.34
2022-12-05T12:57:23.663Z,5.33
2022-12-05T13:00:26.514Z,5.25
2022-12-05T13:03:12.497Z,5.22
2022-12-05T13:06:04.591Z,5.19
2022-12-05T13:08:45.006Z,5.29
2022-12-05T13:11:13.989Z,5.30
2022-12-05T13:13:55.080Z,5.19
2022-12-05T13:16:30.487Z,5.09
2022-12-05T13:18:58.520Z,5.10
2022-12-05T13:21:26.880Z,5.17
2022-12-05T13:23:56.565Z,5.26
2022-12-05T13:26:23.457Z,5.37
2022-12-05T13:29:02.760Z,5.42
2022-12-05T13:31:38.913Z,5.42
2022-12-05T13:34:26.521Z,5.32
2022-12-05T13:37:12.284Z,5.27
2022-12-05T13:39:58.313Z,5.27
2022-12-05T13:42:29.793Z,5.25
2022-12-05T13:44:57.982Z,5.23
2022-12-05T13:47:30.837Z,5.32
2022-12-05T13:50:06.761Z,5.41
2022-12-05T13:53:04.611Z,5.49
2022-12-05T13:55:37.156Z,5.59
2022-12-05T13:58:24.122Z,5.70
2022-12-05T14:01:11.429Z,5.76
2022-12-05T14:03:38.119Z,5.88
2022-12-05T14:06:06.306Z,5.91
2022-12-05T14:08:38.732Z,5.81
2022-12-05T14:11:09.721Z,5.82
2022-12-05T14:13:41.433Z,5.87
2022-12-05T14:16:23.290Z,5.92
2022-12-05T14:19:15.858Z,5.95
2022-12-05T14:21:57.525Z,6.00
2022-12-05T14:25:04.189Z,6.07
2022-12-05T14:27:40.606Z,6.15
2022-12-05T14:30:41.989Z,6.18
2022-12-05T14:33:22.062Z,6.16
2022-12-05T14:35:51.366Z,6.21
2022-12-05T14:38:29.522Z,6.21
2022-12-05T14:41:13.643Z,6.18
2022-12-05T14:43:41.809Z,6.21
2022-12-05T14:46:23.770Z,6.24
2022-12-05T14:48:51.567Z,6.27
2022-12-05T14:51:30.391Z,6.25
2022-12-05T14:54:06.849Z,6.14
2022-12-05T14:56:41.559Z,6.08
2022-12-05T14:59:29.111Z,6.13
2022-12-05T15:02:02.338Z,6.19
2022-12-05T15:04:40.904Z,6.22
2022-12-05T15:07:17.429Z,6.19
2022-12-05T15:10:03.922Z,6.15
2022-12-05T15:12:43.304Z,6.17
2022-12-05T15:15:36.039Z,6.16
2022-12-05T15:18:27.711Z,5.95
2022-12-05T15:21:19.031Z,5.88
2022-12-05T15:23:49.446Z,5.92
2022-12-05T15:26:48.492Z,5.91
2022-12-05T15:29:20.129Z,5.67
2022-12-05T15:32:17.482Z,5.49
2022-12-05T15:35:04.928Z,5.52
2022-12-05T15:37:45.373Z,5.60
2022-12-05T15:40:17.626Z,5.66
2022-12-05T15:42:47.538Z,5.77
2022-12-05T15:45:21.057Z,5.85
2022-12-05T15:47:50.400Z,5.90
2022-12-05T15:50:30.167Z,5.95
2022-12-05T15:53:03.336Z,5.99
2022-12-05T15:55:40.959Z,6.04
2022-12-05T15:58:26.895Z,6.06
2022-12-05T16:01:08.611Z,5.81
2022-12-05T16:04:03.670Z,5.83
2022-12-05T16:06:47.689Z,5.75
2022-12-05T16:09:18.495Z,5.82
2022-12-05T16:12:03.270Z,5.88
2022-12-05T16:17:28.721Z,5.64
2022-12-05T16:20:30.782Z,5.60
2022-12-05T16:23:25.437Z,5.64
2022-12-05T16:25:52.167Z,5.62
2022-12-05T16:28:21.275Z,5.50
2022-12-05T16:31:02.239Z,5.47
2022-12-05T16:33:32.261Z,5.44
2022-12-05T16:36:11.292Z,5.49
2022-12-05T16:38:42.522Z,5.59
2022-12-05T16:41:16.492Z,5.72
2022-12-05T16:43:44.940Z,5.84
2022-12-05T16:46:16.917Z,5.93
2022-12-05T16:48:47.157Z,5.98
2022-12-05T16:51:14.366Z,6.04
2022-12-05T16:53:45.338Z,6.06
2022-12-05T16:56:26.065Z,6.06
2022-12-05T16:58:53.544Z,6.05
2022-12-05T17:01:23.956Z,6.03
2022-12-05T17:03:53.321Z,5.86
2022-12-05T17:06:23.418Z,5.71
2022-12-05T17:08:54.648Z,5.70
2022-12-05T17:11:31.935Z,5.66
2022-12-05T17:13:59.440Z,5.58
2022-12-05T17:16:26.092Z,5.54
2022-12-05T17:18:56.189Z,5.62
2022-12-05T17:21:28.470Z,5.69
2022-12-05T17:23:55.046Z,5.66
2022-12-05T17:26:21.894Z,5.73
2022-12-05T17:28:49.303Z,5.84
2022-12-05T17:31:19.111Z,5.77
2022-12-05T17:33:46.835Z,5.78
2022-12-05T17:36:14.299Z,5.75
2022-12-05T17:38:41.588Z,5.51
2022-12-05T17:41:14.990Z,5.30
2022-12-05T17:43:41.467Z,5.04
2022-12-05T17:46:09.090Z,5.00
2022-12-05T17:48:38.893Z,5.03
2022-12-05T17:51:10.567Z,5.01
2022-12-05T17:53:38.139Z,5.10
2022-12-05T17:56:04.953Z,5.23
2022-12-05T17:58:32.264Z,5.36
2022-12-05T18:01:00.238Z,5.44
2022-12-05T18:03:27.409Z,5.55
2022-12-05T18:05:54.221Z,5.60
2022-12-05T18:08:21.345Z,5.63
2022-12-05T18:10:48.917Z,5.67
2022-12-05T18:13:16.545Z,5.69
2022-12-05T18:15:43.646Z,5.68
2022-12-05T18:18:14.259Z,5.60
2022-12-05T18:20:40.946Z,5.46
2022-12-05T18:23:08.021Z,5.37
2022-12-05T18:25:38.085Z,5.42
2022-12-05T18:28:04.992Z,5.52
2022-12-05T18:30:32.245Z,5.62
2022-12-05T18:32:58.826Z,5.71
2022-12-05T18:35:40.627Z,5.65
2022-12-05T18:38:11.879Z,5.44
2022-12-05T18:40:38.484Z,5.37
2022-12-05T18:43:05.026Z,5.36
2022-12-05T18:45:31.903Z,5.34
2022-12-05T18:48:09.917Z,5.26
2022-12-05T18:50:44.294Z,5.30
2022-12-05T18:53:10.873Z,5.26
2022-12-05T18:55:58.240Z,5.27
2022-12-05T18:58:24.175Z,5.31
2022-12-05T19:00:50.911Z,5.30
2022-12-05T19:03:17.623Z,5.33
2022-12-05T19:05:44.284Z,5.40
2022-12-05T19:08:11.203Z,5.42
2022-12-05T19:10:37.926Z,5.43
2022-12-05T19:13:04.468Z,5.46
2022-12-05T19:15:31.287Z,5.48
2022-12-05T19:17:57.765Z,5.37
2022-12-05T19:20:24.299Z,5.35
2022-12-05T19:22:51.132Z,5.39
2022-12-05T19:25:19.129Z,5.42
2022-12-05T19:27:45.719Z,5.45
2022-12-05T19:30:12.526Z,5.41
2022-12-05T19:32:40.642Z,5.34
2022-12-05T19:35:07.960Z,5.42
2022-12-05T19:37:35.603Z,5.47
2022-12-05T19:40:02.789Z,5.52
2022-12-05T19:42:30.453Z,5.52
2022-12-05T19:44:57.503Z,5.52
2022-12-05T19:47:24.086Z,5.53
2022-12-05T19:49:50.593Z,5.54
2022-12-05T19:52:18.237Z,5.61
2022-12-05T19:54:45.383Z,5.61
2022-12-05T19:57:35.110Z,5.55
2022-12-05T20:00:03.456Z,5.48
2022-12-05T20:03:24.561Z,5.49
2022-12-05T20:06:00.664Z,5.51
2022-12-05T20:13:50.465Z,5.53
2022-12-05T20:16:29.633Z,5.54
2022-12-05T20:19:04.240Z,5.52
2022-12-05T20:21:35.176Z,5.48
2022-12-05T20:24:06.908Z,5.41
2022-12-05T20:26:39.256Z,5.44
2022-12-05T20:29:08.103Z,5.36
2022-12-05T20:31:37.831Z,5.31
2022-12-05T20:34:05.590Z,5.34
2022-12-05T20:36:33.927Z,5.39
2022-12-05T20:39:05.999Z,5.39
2022-12-05T20:41:35.290Z,5.36
2022-12-05T20:44:04.578Z,5.37
2022-12-05T20:46:32.097Z,5.41
2022-12-05T20:48:58.723Z,5.46
2022-12-05T20:51:30.710Z,5.43
2022-12-05T20:53:58.804Z,5.32
2022-12-05T20:56:27.929Z,5.35
2022-12-05T20:58:56.944Z,5.37
2022-12-05T21:01:25.630Z,5.32
2022-12-05T21:03:53.556Z,5.18
2022-12-05T21:06:38.158Z,5.19
2022-12-05T21:09:14.123Z,5.31
2022-12-05T21:11:44.649Z,5.40
2022-12-05T21:14:12.018Z,5.44
2022-12-05T21:16:38.600Z,5.46
2022-12-05T21:19:05.161Z,5.46
2022-12-05T21:21:33.586Z,5.37
2022-12-05T21:24:03.358Z,5.28
2022-12-05T21:26:32.972Z,5.19
2022-12-05T21:29:00.990Z,5.19
2022-12-05T21:31:30.922Z,5.15
2022-12-05T21:34:00.546Z,5.20
2022-12-05T21:36:29.260Z,5.23
2022-12-05T21:38:56.705Z,5.25
2022-12-05T21:41:26.201Z,5.32
2022-12-05T21:43:55.459Z,5.29
2022-12-05T21:46:25.512Z,5.22
2022-12-05T21:48:53.085Z,5.25
2022-12-05T21:51:20.779Z,5.33
2022-12-05T21:53:50.828Z,5.16
2022-12-05T21:56:22.071Z,5.08
2022-12-05T21:58:49.583Z,4.91
2022-12-05T22:01:17.885Z,4.99
2022-12-05T22:03:47.808Z,5.05
2022-12-05T22:06:14.780Z,5.04
2022-12-05T22:08:48.254Z,4.98
2022-12-05T22:11:21.809Z,4.96
2022-12-05T22:13:48.650Z,4.99
2022-12-05T22:16:16.472Z,5.09
2022-12-05T22:18:43.914Z,5.08
2022-12-05T22:21:16.637Z,5.18
2022-12-05T22:23:43.486Z,5.18
2022-12-05T22:26:16.455Z,5.23
2022-12-05T22:28:43.137Z,5.15
2022-12-05T22:31:15.561Z,5.13
2022-12-05T22:33:42.866Z,5.08
2022-12-05T22:36:12.081Z,5.10
2022-12-05T22:38:40.470Z,5.19
2022-12-05T22:41:10.292Z,5.13
2022-12-05T22:43:37.284Z,4.99
2022-12-05T22:46:10.125Z,5.05
2022-12-05T22:48:37.268Z,5.10
2022-12-05T22:51:06.190Z,5.14
2022-12-05T22:53:33.400Z,5.15
2022-12-05T22:56:06.023Z,5.21
2022-12-05T22:58:33.494Z,5.24
2022-12-05T23:01:10.105Z,5.32
2022-12-05T23:03:37.140Z,5.38
2022-12-05T23:06:11.086Z,5.40
2022-12-05T23:08:39.948Z,5.45
2022-12-05T23:11:07.431Z,5.34
2022-12-05T23:13:34.357Z,5.30
2022-12-05T23:16:22.986Z,5.35
2022-12-05T23:18:50.783Z,5.41
2022-12-05T23:21:19.139Z,5.40
2022-12-05T23:23:47.840Z,5.26
2022-12-05T23:26:15.437Z,5.27
2022-12-05T23:28:42.125Z,5.31
2022-12-05T23:31:10.560Z,5.30
2022-12-05T23:33:37.620Z,5.32
2022-12-05T23:36:05.405Z,5.29
2022-12-05T23:38:36.762Z,5.18
2022-12-05T23:41:14.684Z,5.18
2022-12-05T23:43:41.972Z,5.19
2022-12-05T23:46:10.536Z,5.15
2022-12-05T23:48:37.226Z,5.17
2022-12-05T23:51:14.053Z,5.22
2022-12-05T23:53:42.965Z,5.15
2022-12-05T23:56:09.500Z,5.06
2022-12-05T23:58:36.137Z,5.02
